sensor_id;sensor_type;location;lat;lon;timestamp;temperature;humidity
9998;DHT22;5038;53.064;8.624;2022-10-31T00:01:19;14.30;99.90
9998;DHT22;5038;53.064;8.624;2022-10-31T00:03:48;14.30;99.90
9998;DHT22;5038;53.064;8.624;2022-10-31T00:06:16;14.30;99.90
9998;DHT22;5038;53.064;8.624;2022-10-31T00:08:45;14.20;99.90
9998;DHT22;5038;53.064;8.624;2022-10-31T00:11:14;14.20;99.90
9998;DHT22;5038;53.064;8.624;2022-10-31T00:13:42;14.20;99.90
9998;DHT22;5038;53.064;8.624;2022-10-31T00:16:16;14.20;99.90
9998;DHT22;5038;53.064;8.624;2022-10-31T00:18:48;14.20;99.90
9998;DHT22;5038;53.064;8.624;2022-10-31T00:21:16;14.20;99.90
9998;DHT22;5038;53.064;8.624;2022-10-31T00:23:45;14.20;99.90
9998;DHT22;5038;53.064;8.624;2022-10-31T00:26:13;14.20;99.90
9998;DHT22;5038;53.064;8.624;2022-10-31T00:28:42;14.20;99.90
9998;DHT22;5038;53.064;8.624;2022-10-31T00:31:11;14.10;99.90
9998;DHT22;5038;53.064;8.624;2022-10-31T00:33:41;14.10;99.90
9998;DHT22;5038;53.064;8.624;2022-10-31T00:36:12;14.10;99.90
9998;DHT22;5038;53.064;8.624;2022-10-31T00:38:40;14.10;99.90
9998;DHT22;5038;53.064;8.624;2022-10-31T00:41:09;14.10;99.90
9998;DHT22;5038;53.064;8.624;2022-10-31T00:43:40;14.10;99.90
9998;DHT22;5038;53.064;8.624;2022-10-31T00:46:08;14.00;99.90
9998;DHT22;5038;53.064;8.624;2022-10-31T00:48:36;14.00;99.90
9998;DHT22;5038;53.064;8.624;2022-10-31T00:51:06;14.00;99.90
9998;DHT22;5038;53.064;8.624;2022-10-31T00:53:35;14.00;99.90
9998;DHT22;5038;53.064;8.624;2022-10-31T00:56:04;13.90;99.90
9998;DHT22;5038;53.064;8.624;2022-10-31T00:58:33;14.00;99.90
9998;DHT22;5038;53.064;8.624;2022-10-31T01:01:01;14.00;99.90
9998;DHT22;5038;53.064;8.624;2022-10-31T01:03:31;14.00;99.90
9998;DHT22;5038;53.064;8.624;2022-10-31T01:06:02;14.00;99.90
9998;DHT22;5038;53.064;8.624;2022-10-31T01:08:33;14.00;99.90
9998;DHT22;5038;53.064;8.624;2022-10-31T01:11:06;13.90;99.90
9998;DHT22;5038;53.064;8.624;2022-10-31T01:13:34;13.90;99.90
9998;DHT22;5038;53.064;8.624;2022-10-31T01:16:04;13.90;99.90
9998;DHT22;5038;53.064;8.624;2022-10-31T01:18:33;13.90;99.90
9998;DHT22;5038;53.064;8.624;2022-10-31T01:21:04;13.90;99.90
9998;DHT22;5038;53.064;8.624;2022-10-31T01:23:34;13.90;99.90
9998;DHT22;5038;53.064;8.624;2022-10-31T01:26:07;13.80;99.90
9998;DHT22;5038;53.064;8.624;2022-10-31T01:28:36;13.80;99.90
9998;DHT22;5038;53.064;8.624;2022-10-31T01:31:07;13.80;99.90
9998;DHT22;5038;53.064;8.624;2022-10-31T01:33:36;13.80;99.90
9998;DHT22;5038;53.064;8.624;2022-10-31T01:36:12;13.80;99.90
9998;DHT22;5038;53.064;8.624;2022-10-31T01:38:42;13.80;99.90
9998;DHT22;5038;53.064;8.624;2022-10-31T01:41:12;13.70;99.90
9998;DHT22;5038;53.064;8.624;2022-10-31T01:43:46;13.70;99.90
9998;DHT22;5038;53.064;8.624;2022-10-31T01:46:17;13.70;99.90
9998;DHT22;5038;53.064;8.624;2022-10-31T01:48:46;13.70;99.90
9998;DHT22;5038;53.064;8.624;2022-10-31T01:51:17;13.70;99.90
9998;DHT22;5038;53.064;8.624;2022-10-31T01:53:50;13.60;99.90
9998;DHT22;5038;53.064;8.624;2022-10-31T01:56:20;13.60;99.90
9998;DHT22;5038;53.064;8.624;2022-10-31T01:58:50;13.60;99.90
9998;DHT22;5038;53.064;8.624;2022-10-31T02:01:19;13.50;99.90
9998;DHT22;5038;53.064;8.624;2022-10-31T02:03:48;13.50;99.90
9998;DHT22;5038;53.064;8.624;2022-10-31T02:06:26;13.50;99.90
9998;DHT22;5038;53.064;8.624;2022-10-31T02:08:57;13.50;99.90
9998;DHT22;5038;53.064;8.624;2022-10-31T02:11:27;13.50;99.90
9998;DHT22;5038;53.064;8.624;2022-10-31T02:13:56;13.40;99.90
9998;DHT22;5038;53.064;8.624;2022-10-31T02:16:24;13.40;99.90
9998;DHT22;5038;53.064;8.624;2022-10-31T02:18:53;13.40;99.90
9998;DHT22;5038;53.064;8.624;2022-10-31T02:21:26;13.40;99.90
9998;DHT22;5038;53.064;8.624;2022-10-31T02:24:17;13.40;99.90
9998;DHT22;5038;53.064;8.624;2022-10-31T02:26:58;13.30;99.90
9998;DHT22;5038;53.064;8.624;2022-10-31T02:32:46;13.30;99.90
9998;DHT22;5038;53.064;8.624;2022-10-31T02:35:24;13.30;99.90
9998;DHT22;5038;53.064;8.624;2022-10-31T02:38:04;13.30;99.90
9998;DHT22;5038;53.064;8.624;2022-10-31T02:40:45;13.20;99.90
9998;DHT22;5038;53.064;8.624;2022-10-31T02:43:50;13.20;99.90
9998;DHT22;5038;53.064;8.624;2022-10-31T02:46:27;13.20;99.90
9998;DHT22;5038;53.064;8.624;2022-10-31T02:49:04;13.10;99.90
9998;DHT22;5038;53.064;8.624;2022-10-31T02:51:34;13.10;99.90
9998;DHT22;5038;53.064;8.624;2022-10-31T02:54:03;13.10;99.90
9998;DHT22;5038;53.064;8.624;2022-10-31T02:56:31;13.10;99.90
9998;DHT22;5038;53.064;8.624;2022-10-31T02:59:01;13.00;99.90
9998;DHT22;5038;53.064;8.624;2022-10-31T03:01:44;13.00;99.90
9998;DHT22;5038;53.064;8.624;2022-10-31T03:04:45;13.00;99.90
9998;DHT22;5038;53.064;8.624;2022-10-31T03:07:23;13.00;99.90
9998;DHT22;5038;53.064;8.624;2022-10-31T03:10:01;12.90;99.90
9998;DHT22;5038;53.064;8.624;2022-10-31T03:12:37;12.90;99.90
9998;DHT22;5038;53.064;8.624;2022-10-31T03:15:17;12.90;99.90
9998;DHT22;5038;53.064;8.624;2022-10-31T03:17:54;12.90;99.90
9998;DHT22;5038;53.064;8.624;2022-10-31T03:20:31;12.90;99.90
9998;DHT22;5038;53.064;8.624;2022-10-31T03:23:02;12.80;99.90
9998;DHT22;5038;53.064;8.624;2022-10-31T03:25:32;12.80;99.90
9998;DHT22;5038;53.064;8.624;2022-10-31T03:28:02;12.80;99.90
9998;DHT22;5038;53.064;8.624;2022-10-31T03:30:34;12.80;99.90
9998;DHT22;5038;53.064;8.624;2022-10-31T03:33:06;12.80;99.90
9998;DHT22;5038;53.064;8.624;2022-10-31T03:35:40;12.70;99.90
9998;DHT22;5038;53.064;8.624;2022-10-31T03:38:10;12.70;99.90
9998;DHT22;5038;53.064;8.624;2022-10-31T03:40:41;12.70;99.90
9998;DHT22;5038;53.064;8.624;2022-10-31T03:43:15;12.70;99.90
9998;DHT22;5038;53.064;8.624;2022-10-31T03:45:46;12.70;99.90
9998;DHT22;5038;53.064;8.624;2022-10-31T03:48:16;12.60;99.90
9998;DHT22;5038;53.064;8.624;2022-10-31T03:50:51;12.60;99.90
9998;DHT22;5038;53.064;8.624;2022-10-31T03:53:25;12.60;99.90
9998;DHT22;5038;53.064;8.624;2022-10-31T03:55:59;12.60;99.90
9998;DHT22;5038;53.064;8.624;2022-10-31T03:58:35;12.60;99.90
9998;DHT22;5038;53.064;8.624;2022-10-31T04:01:09;12.60;99.90
9998;DHT22;5038;53.064;8.624;2022-10-31T04:03:40;12.60;99.90
9998;DHT22;5038;53.064;8.624;2022-10-31T04:06:13;12.60;99.90
9998;DHT22;5038;53.064;8.624;2022-10-31T04:08:48;12.60;99.90
9998;DHT22;5038;53.064;8.624;2022-10-31T04:11:21;12.60;99.90
9998;DHT22;5038;53.064;8.624;2022-10-31T04:14:11;12.60;99.90
9998;DHT22;5038;53.064;8.624;2022-10-31T04:16:42;12.60;99.90
9998;DHT22;5038;53.064;8.624;2022-10-31T04:19:12;12.60;99.90
9998;DHT22;5038;53.064;8.624;2022-10-31T04:21:42;12.60;99.90
9998;DHT22;5038;53.064;8.624;2022-10-31T04:24:11;12.60;99.90
9998;DHT22;5038;53.064;8.624;2022-10-31T04:26:40;12.60;99.90
9998;DHT22;5038;53.064;8.624;2022-10-31T04:29:08;12.60;99.90
9998;DHT22;5038;53.064;8.624;2022-10-31T04:31:37;12.60;99.90
9998;DHT22;5038;53.064;8.624;2022-10-31T04:34:06;12.60;99.90
9998;DHT22;5038;53.064;8.624;2022-10-31T04:36:35;12.70;99.90
9998;DHT22;5038;53.064;8.624;2022-10-31T04:39:04;12.70;99.90
9998;DHT22;5038;53.064;8.624;2022-10-31T04:41:51;12.70;99.90
9998;DHT22;5038;53.064;8.624;2022-10-31T04:44:19;12.70;99.90
9998;DHT22;5038;53.064;8.624;2022-10-31T04:46:50;12.70;99.90
9998;DHT22;5038;53.064;8.624;2022-10-31T04:49:18;12.60;99.90
9998;DHT22;5038;53.064;8.624;2022-10-31T04:51:47;12.60;99.90
9998;DHT22;5038;53.064;8.624;2022-10-31T04:54:17;12.60;99.90
9998;DHT22;5038;53.064;8.624;2022-10-31T04:57:04;12.60;99.90
9998;DHT22;5038;53.064;8.624;2022-10-31T04:59:32;12.60;99.90
9998;DHT22;5038;53.064;8.624;2022-10-31T05:02:01;12.60;99.90
9998;DHT22;5038;53.064;8.624;2022-10-31T05:04:42;12.60;99.90
9998;DHT22;5038;53.064;8.624;2022-10-31T05:07:12;12.60;99.90
9998;DHT22;5038;53.064;8.624;2022-10-31T05:09:41;12.60;99.90
9998;DHT22;5038;53.064;8.624;2022-10-31T05:12:12;12.60;99.90
9998;DHT22;5038;53.064;8.624;2022-10-31T05:15:19;12.60;99.90
9998;DHT22;5038;53.064;8.624;2022-10-31T05:18:11;12.60;99.90
9998;DHT22;5038;53.064;8.624;2022-10-31T05:20:58;12.60;99.90
9998;DHT22;5038;53.064;8.624;2022-10-31T05:23:47;12.60;99.90
9998;DHT22;5038;53.064;8.624;2022-10-31T05:26:18;12.60;99.90
9998;DHT22;5038;53.064;8.624;2022-10-31T05:28:47;12.60;99.90
9998;DHT22;5038;53.064;8.624;2022-10-31T05:31:15;12.60;99.90
9998;DHT22;5038;53.064;8.624;2022-10-31T05:33:43;12.60;99.90
9998;DHT22;5038;53.064;8.624;2022-10-31T05:36:17;12.50;99.90
9998;DHT22;5038;53.064;8.624;2022-10-31T05:38:59;12.60;99.90
9998;DHT22;5038;53.064;8.624;2022-10-31T05:41:36;12.50;99.90
9998;DHT22;5038;53.064;8.624;2022-10-31T05:44:11;12.50;99.90
9998;DHT22;5038;53.064;8.624;2022-10-31T05:46:59;12.50;99.90
9998;DHT22;5038;53.064;8.624;2022-10-31T05:49:36;12.50;99.90
9998;DHT22;5038;53.064;8.624;2022-10-31T05:52:23;12.50;99.90
9998;DHT22;5038;53.064;8.624;2022-10-31T05:54:59;12.50;99.90
9998;DHT22;5038;53.064;8.624;2022-10-31T05:57:32;12.50;99.90
9998;DHT22;5038;53.064;8.624;2022-10-31T06:00:00;12.50;99.90
9998;DHT22;5038;53.064;8.624;2022-10-31T06:02:34;12.40;99.90
9998;DHT22;5038;53.064;8.624;2022-10-31T06:05:24;12.40;99.90
9998;DHT22;5038;53.064;8.624;2022-10-31T06:07:52;12.40;99.90
9998;DHT22;5038;53.064;8.624;2022-10-31T06:10:22;12.40;99.90
9998;DHT22;5038;53.064;8.624;2022-10-31T06:12:56;12.40;99.90
9998;DHT22;5038;53.064;8.624;2022-10-31T06:16:02;12.40;99.90
9998;DHT22;5038;53.064;8.624;2022-10-31T06:18:35;12.40;99.90
9998;DHT22;5038;53.064;8.624;2022-10-31T06:21:03;12.30;99.90
9998;DHT22;5038;53.064;8.624;2022-10-31T06:23:32;12.30;99.90
9998;DHT22;5038;53.064;8.624;2022-10-31T06:26:29;12.30;99.90
9998;DHT22;5038;53.064;8.624;2022-10-31T06:28:59;12.30;99.90
9998;DHT22;5038;53.064;8.624;2022-10-31T06:31:53;12.30;99.90
9998;DHT22;5038;53.064;8.624;2022-10-31T06:34:22;12.20;99.90
9998;DHT22;5038;53.064;8.624;2022-10-31T06:36:50;12.20;99.90
9998;DHT22;5038;53.064;8.624;2022-10-31T06:39:22;12.20;99.90
9998;DHT22;5038;53.064;8.624;2022-10-31T06:41:52;12.20;99.90
9998;DHT22;5038;53.064;8.624;2022-10-31T06:44:24;12.20;99.90
9998;DHT22;5038;53.064;8.624;2022-10-31T06:47:12;12.20;99.90
9998;DHT22;5038;53.064;8.624;2022-10-31T06:49:56;12.20;99.90
9998;DHT22;5038;53.064;8.624;2022-10-31T06:52:25;12.10;99.90
9998;DHT22;5038;53.064;8.624;2022-10-31T06:54:55;12.10;99.90
9998;DHT22;5038;53.064;8.624;2022-10-31T06:57:24;12.10;99.90
9998;DHT22;5038;53.064;8.624;2022-10-31T06:59:54;12.10;99.90
9998;DHT22;5038;53.064;8.624;2022-10-31T07:02:42;12.10;99.90
9998;DHT22;5038;53.064;8.624;2022-10-31T07:05:10;12.10;99.90
9998;DHT22;5038;53.064;8.624;2022-10-31T07:07:40;12.10;99.90
9998;DHT22;5038;53.064;8.624;2022-10-31T07:10:09;12.10;99.90
9998;DHT22;5038;53.064;8.624;2022-10-31T07:12:54;12.10;99.90
9998;DHT22;5038;53.064;8.624;2022-10-31T07:15:24;12.10;99.90
9998;DHT22;5038;53.064;8.624;2022-10-31T07:17:54;12.10;99.90
9998;DHT22;5038;53.064;8.624;2022-10-31T07:20:27;12.10;99.90
9998;DHT22;5038;53.064;8.624;2022-10-31T07:22:55;12.10;99.90
9998;DHT22;5038;53.064;8.624;2022-10-31T07:25:24;12.10;99.90
9998;DHT22;5038;53.064;8.624;2022-10-31T07:28:14;12.10;99.90
9998;DHT22;5038;53.064;8.624;2022-10-31T07:30:50;12.10;99.90
9998;DHT22;5038;53.064;8.624;2022-10-31T07:33:20;12.10;99.90
9998;DHT22;5038;53.064;8.624;2022-10-31T07:36:07;12.10;99.90
9998;DHT22;5038;53.064;8.624;2022-10-31T07:38:42;12.10;99.90
9998;DHT22;5038;53.064;8.624;2022-10-31T07:41:10;12.10;99.90
9998;DHT22;5038;53.064;8.624;2022-10-31T07:43:42;12.10;99.90
9998;DHT22;5038;53.064;8.624;2022-10-31T07:46:18;12.10;99.90
9998;DHT22;5038;53.064;8.624;2022-10-31T07:49:10;12.10;99.90
9998;DHT22;5038;53.064;8.624;2022-10-31T07:51:56;12.10;99.90
9998;DHT22;5038;53.064;8.624;2022-10-31T07:54:43;12.10;99.90
9998;DHT22;5038;53.064;8.624;2022-10-31T07:57:12;12.10;99.90
9998;DHT22;5038;53.064;8.624;2022-10-31T07:59:42;12.10;99.90
9998;DHT22;5038;53.064;8.624;2022-10-31T08:02:12;12.10;99.90
9998;DHT22;5038;53.064;8.624;2022-10-31T08:04:46;12.10;99.90
9998;DHT22;5038;53.064;8.624;2022-10-31T08:07:26;12.10;99.90
9998;DHT22;5038;53.064;8.624;2022-10-31T08:10:01;12.20;99.90
9998;DHT22;5038;53.064;8.624;2022-10-31T08:12:31;12.20;99.90
9998;DHT22;5038;53.064;8.624;2022-10-31T08:14:59;12.20;99.90
9998;DHT22;5038;53.064;8.624;2022-10-31T08:17:30;12.20;99.90
9998;DHT22;5038;53.064;8.624;2022-10-31T08:20:01;12.20;99.90
9998;DHT22;5038;53.064;8.624;2022-10-31T08:22:35;12.20;99.90
9998;DHT22;5038;53.064;8.624;2022-10-31T08:25:09;12.20;99.90
9998;DHT22;5038;53.064;8.624;2022-10-31T08:27:38;12.30;99.90
9998;DHT22;5038;53.064;8.624;2022-10-31T08:30:16;12.30;99.90
9998;DHT22;5038;53.064;8.624;2022-10-31T08:33:04;12.30;99.90
9998;DHT22;5038;53.064;8.624;2022-10-31T08:35:51;12.40;99.90
9998;DHT22;5038;53.064;8.624;2022-10-31T08:38:51;12.40;99.90
9998;DHT22;5038;53.064;8.624;2022-10-31T08:41:28;12.40;99.90
9998;DHT22;5038;53.064;8.624;2022-10-31T08:43:57;12.40;99.90
9998;DHT22;5038;53.064;8.624;2022-10-31T08:46:26;12.50;99.90
9998;DHT22;5038;53.064;8.624;2022-10-31T08:48:55;12.50;99.90
9998;DHT22;5038;53.064;8.624;2022-10-31T08:51:23;12.50;99.90
9998;DHT22;5038;53.064;8.624;2022-10-31T08:53:54;12.50;99.90
9998;DHT22;5038;53.064;8.624;2022-10-31T08:56:40;12.60;99.90
9998;DHT22;5038;53.064;8.624;2022-10-31T08:59:23;12.60;99.90
9998;DHT22;5038;53.064;8.624;2022-10-31T09:02:20;12.60;99.90
9998;DHT22;5038;53.064;8.624;2022-10-31T09:04:52;12.70;99.90
9998;DHT22;5038;53.064;8.624;2022-10-31T09:07:21;12.70;99.90
9998;DHT22;5038;53.064;8.624;2022-10-31T09:09:49;12.80;99.90
9998;DHT22;5038;53.064;8.624;2022-10-31T09:12:18;12.80;99.90
9998;DHT22;5038;53.064;8.624;2022-10-31T09:15:06;12.90;99.90
9998;DHT22;5038;53.064;8.624;2022-10-31T09:17:57;12.90;99.90
9998;DHT22;5038;53.064;8.624;2022-10-31T09:20:41;12.90;99.90
9998;DHT22;5038;53.064;8.624;2022-10-31T09:23:11;12.90;99.90
9998;DHT22;5038;53.064;8.624;2022-10-31T09:25:41;12.90;99.90
9998;DHT22;5038;53.064;8.624;2022-10-31T09:28:37;12.90;99.90
9998;DHT22;5038;53.064;8.624;2022-10-31T09:31:12;13.00;99.90
9998;DHT22;5038;53.064;8.624;2022-10-31T09:34:03;13.00;99.90
9998;DHT22;5038;53.064;8.624;2022-10-31T09:36:38;13.00;99.90
9998;DHT22;5038;53.064;8.624;2022-10-31T09:39:11;13.00;99.90
9998;DHT22;5038;53.064;8.624;2022-10-31T09:41:58;13.10;99.90
9998;DHT22;5038;53.064;8.624;2022-10-31T09:44:37;13.10;99.90
9998;DHT22;5038;53.064;8.624;2022-10-31T09:47:19;13.20;99.90
9998;DHT22;5038;53.064;8.624;2022-10-31T09:50:14;13.20;99.90
9998;DHT22;5038;53.064;8.624;2022-10-31T09:52:53;13.30;99.90
9998;DHT22;5038;53.064;8.624;2022-10-31T09:55:27;13.40;99.90
9998;DHT22;5038;53.064;8.624;2022-10-31T09:57:59;13.40;99.90
9998;DHT22;5038;53.064;8.624;2022-10-31T10:00:28;13.50;99.90
9998;DHT22;5038;53.064;8.624;2022-10-31T10:03:10;13.50;99.90
9998;DHT22;5038;53.064;8.624;2022-10-31T10:05:43;13.60;99.90
9998;DHT22;5038;53.064;8.624;2022-10-31T10:08:30;13.70;99.90
9998;DHT22;5038;53.064;8.624;2022-10-31T10:11:22;13.70;99.90
9998;DHT22;5038;53.064;8.624;2022-10-31T10:14:14;13.80;99.90
9998;DHT22;5038;53.064;8.624;2022-10-31T10:16:54;13.90;99.90
9998;DHT22;5038;53.064;8.624;2022-10-31T10:22:21;14.00;99.90
9998;DHT22;5038;53.064;8.624;2022-10-31T10:25:07;14.10;99.90
9998;DHT22;5038;53.064;8.624;2022-10-31T10:27:49;14.20;99.90
9998;DHT22;5038;53.064;8.624;2022-10-31T10:30:19;14.20;99.90
9998;DHT22;5038;53.064;8.624;2022-10-31T10:32:50;14.30;99.90
9998;DHT22;5038;53.064;8.624;2022-10-31T10:35:22;14.30;99.90
9998;DHT22;5038;53.064;8.624;2022-10-31T10:37:55;14.40;99.90
9998;DHT22;5038;53.064;8.624;2022-10-31T10:40:27;14.50;99.90
9998;DHT22;5038;53.064;8.624;2022-10-31T10:43:00;14.40;99.90
9998;DHT22;5038;53.064;8.624;2022-10-31T10:45:53;14.50;99.90
9998;DHT22;5038;53.064;8.624;2022-10-31T10:48:45;14.60;99.90
9998;DHT22;5038;53.064;8.624;2022-10-31T10:51:22;14.60;99.90
9998;DHT22;5038;53.064;8.624;2022-10-31T10:54:24;14.70;99.90
9998;DHT22;5038;53.064;8.624;2022-10-31T10:57:03;14.80;99.90
9998;DHT22;5038;53.064;8.624;2022-10-31T10:59:34;14.80;99.90
9998;DHT22;5038;53.064;8.624;2022-10-31T11:02:03;14.90;99.90
9998;DHT22;5038;53.064;8.624;2022-10-31T11:04:34;15.00;99.90
9998;DHT22;5038;53.064;8.624;2022-10-31T11:07:05;15.10;99.90
9998;DHT22;5038;53.064;8.624;2022-10-31T11:09:34;15.20;99.90
9998;DHT22;5038;53.064;8.624;2022-10-31T11:12:08;15.20;99.90
9998;DHT22;5038;53.064;8.624;2022-10-31T11:14:44;15.30;99.90
9998;DHT22;5038;53.064;8.624;2022-10-31T11:17:20;15.30;99.90
9998;DHT22;5038;53.064;8.624;2022-10-31T11:20:00;15.40;99.90
9998;DHT22;5038;53.064;8.624;2022-10-31T11:22:29;15.40;99.90
9998;DHT22;5038;53.064;8.624;2022-10-31T11:24:57;15.50;99.90
9998;DHT22;5038;53.064;8.624;2022-10-31T11:27:27;15.50;99.90
9998;DHT22;5038;53.064;8.624;2022-10-31T11:30:05;15.50;99.90
9998;DHT22;5038;53.064;8.624;2022-10-31T11:32:33;15.60;99.90
9998;DHT22;5038;53.064;8.624;2022-10-31T11:35:03;15.60;99.90
9998;DHT22;5038;53.064;8.624;2022-10-31T11:37:42;15.60;99.90
9998;DHT22;5038;53.064;8.624;2022-10-31T11:40:16;15.70;99.90
9998;DHT22;5038;53.064;8.624;2022-10-31T11:42:47;15.70;99.90
9998;DHT22;5038;53.064;8.624;2022-10-31T11:45:28;15.80;99.90
9998;DHT22;5038;53.064;8.624;2022-10-31T11:47:58;15.80;99.90
9998;DHT22;5038;53.064;8.624;2022-10-31T11:50:34;15.80;99.90
9998;DHT22;5038;53.064;8.624;2022-10-31T11:53:03;15.80;99.90
9998;DHT22;5038;53.064;8.624;2022-10-31T11:55:33;15.80;99.90
9998;DHT22;5038;53.064;8.624;2022-10-31T11:58:03;15.80;99.90
9998;DHT22;5038;53.064;8.624;2022-10-31T12:00:36;15.90;99.90
9998;DHT22;5038;53.064;8.624;2022-10-31T12:03:11;15.90;99.90
9998;DHT22;5038;53.064;8.624;2022-10-31T12:05:42;15.90;99.90
9998;DHT22;5038;53.064;8.624;2022-10-31T12:08:12;16.00;99.90
9998;DHT22;5038;53.064;8.624;2022-10-31T12:10:49;16.10;99.90
9998;DHT22;5038;53.064;8.624;2022-10-31T12:13:32;16.10;99.90
9998;DHT22;5038;53.064;8.624;2022-10-31T12:16:06;16.10;99.90
9998;DHT22;5038;53.064;8.624;2022-10-31T12:18:44;16.10;99.90
9998;DHT22;5038;53.064;8.624;2022-10-31T12:21:24;16.20;99.90
9998;DHT22;5038;53.064;8.624;2022-10-31T12:24:06;16.20;99.90
9998;DHT22;5038;53.064;8.624;2022-10-31T12:26:43;16.20;99.90
9998;DHT22;5038;53.064;8.624;2022-10-31T12:29:29;16.20;99.90
9998;DHT22;5038;53.064;8.624;2022-10-31T12:32:15;16.20;99.90
9998;DHT22;5038;53.064;8.624;2022-10-31T12:35:13;16.20;99.90
9998;DHT22;5038;53.064;8.624;2022-10-31T12:37:58;16.20;99.90
9998;DHT22;5038;53.064;8.624;2022-10-31T12:40:43;16.20;99.90
9998;DHT22;5038;53.064;8.624;2022-10-31T12:43:25;16.20;99.90
9998;DHT22;5038;53.064;8.624;2022-10-31T12:46:00;16.20;99.90
9998;DHT22;5038;53.064;8.624;2022-10-31T12:48:49;16.30;99.90
9998;DHT22;5038;53.064;8.624;2022-10-31T12:51:29;16.30;99.90
9998;DHT22;5038;53.064;8.624;2022-10-31T12:54:17;16.30;99.90
9998;DHT22;5038;53.064;8.624;2022-10-31T12:56:55;16.30;99.90
9998;DHT22;5038;53.064;8.624;2022-10-31T12:59:30;16.30;99.90
9998;DHT22;5038;53.064;8.624;2022-10-31T13:02:10;16.30;99.90
9998;DHT22;5038;53.064;8.624;2022-10-31T13:04:46;16.30;99.90
9998;DHT22;5038;53.064;8.624;2022-10-31T13:07:20;16.30;99.90
9998;DHT22;5038;53.064;8.624;2022-10-31T13:09:54;16.30;99.90
9998;DHT22;5038;53.064;8.624;2022-10-31T13:12:22;16.30;99.90
9998;DHT22;5038;53.064;8.624;2022-10-31T13:14:55;16.20;99.90
9998;DHT22;5038;53.064;8.624;2022-10-31T13:17:30;16.30;99.90
9998;DHT22;5038;53.064;8.624;2022-10-31T13:20:21;16.20;99.90
9998;DHT22;5038;53.064;8.624;2022-10-31T13:22:53;16.20;99.90
9998;DHT22;5038;53.064;8.624;2022-10-31T13:25:24;16.10;99.90
9998;DHT22;5038;53.064;8.624;2022-10-31T13:27:55;16.10;99.90
9998;DHT22;5038;53.064;8.624;2022-10-31T13:30:27;16.10;99.90
9998;DHT22;5038;53.064;8.624;2022-10-31T13:33:02;16.10;99.90
9998;DHT22;5038;53.064;8.624;2022-10-31T13:35:37;16.10;99.90
9998;DHT22;5038;53.064;8.624;2022-10-31T13:38:16;16.00;99.90
9998;DHT22;5038;53.064;8.624;2022-10-31T13:40:52;16.00;99.90
9998;DHT22;5038;53.064;8.624;2022-10-31T13:43:28;16.00;99.90
9998;DHT22;5038;53.064;8.624;2022-10-31T13:45:58;16.00;99.90
9998;DHT22;5038;53.064;8.624;2022-10-31T13:48:40;16.00;99.90
9998;DHT22;5038;53.064;8.624;2022-10-31T13:51:10;16.00;99.90
9998;DHT22;5038;53.064;8.624;2022-10-31T13:53:41;16.00;99.90
9998;DHT22;5038;53.064;8.624;2022-10-31T13:56:19;16.00;99.90
9998;DHT22;5038;53.064;8.624;2022-10-31T13:59:02;16.00;99.90
9998;DHT22;5038;53.064;8.624;2022-10-31T14:01:32;16.00;99.90
9998;DHT22;5038;53.064;8.624;2022-10-31T14:04:05;15.90;99.90
9998;DHT22;5038;53.064;8.624;2022-10-31T14:06:47;15.90;99.90
9998;DHT22;5038;53.064;8.624;2022-10-31T14:09:29;15.90;99.90
9998;DHT22;5038;53.064;8.624;2022-10-31T14:12:01;15.90;99.90
9998;DHT22;5038;53.064;8.624;2022-10-31T14:14:34;15.80;99.90
9998;DHT22;5038;53.064;8.624;2022-10-31T14:17:04;15.80;99.90
9998;DHT22;5038;53.064;8.624;2022-10-31T14:19:36;15.80;99.90
9998;DHT22;5038;53.064;8.624;2022-10-31T14:22:04;15.70;99.90
9998;DHT22;5038;53.064;8.624;2022-10-31T14:24:35;15.70;99.90
9998;DHT22;5038;53.064;8.624;2022-10-31T14:27:32;15.70;99.90
9998;DHT22;5038;53.064;8.624;2022-10-31T14:30:17;15.60;99.90
9998;DHT22;5038;53.064;8.624;2022-10-31T14:32:50;15.60;99.90
9998;DHT22;5038;53.064;8.624;2022-10-31T14:35:24;15.60;99.90
9998;DHT22;5038;53.064;8.624;2022-10-31T14:38:06;15.60;99.90
9998;DHT22;5038;53.064;8.624;2022-10-31T14:40:48;15.60;99.90
9998;DHT22;5038;53.064;8.624;2022-10-31T14:43:42;15.60;99.90
9998;DHT22;5038;53.064;8.624;2022-10-31T14:46:18;15.50;99.90
9998;DHT22;5038;53.064;8.624;2022-10-31T14:49:12;15.50;99.90
9998;DHT22;5038;53.064;8.624;2022-10-31T14:51:47;15.50;99.90
9998;DHT22;5038;53.064;8.624;2022-10-31T14:54:19;15.50;99.90
9998;DHT22;5038;53.064;8.624;2022-10-31T14:56:50;15.50;99.90
9998;DHT22;5038;53.064;8.624;2022-10-31T14:59:23;15.50;99.90
9998;DHT22;5038;53.064;8.624;2022-10-31T15:01:56;15.50;99.90
9998;DHT22;5038;53.064;8.624;2022-10-31T15:04:27;15.50;99.90
9998;DHT22;5038;53.064;8.624;2022-10-31T15:07:02;15.40;99.90
9998;DHT22;5038;53.064;8.624;2022-10-31T15:09:35;15.40;99.90
9998;DHT22;5038;53.064;8.624;2022-10-31T15:12:22;15.40;99.90
9998;DHT22;5038;53.064;8.624;2022-10-31T15:14:51;15.40;99.90
9998;DHT22;5038;53.064;8.624;2022-10-31T15:17:20;15.30;99.90
9998;DHT22;5038;53.064;8.624;2022-10-31T15:19:49;15.30;99.90
9998;DHT22;5038;53.064;8.624;2022-10-31T15:22:23;15.30;99.90
9998;DHT22;5038;53.064;8.624;2022-10-31T15:24:51;15.30;99.90
9998;DHT22;5038;53.064;8.624;2022-10-31T15:27:23;15.30;99.90
9998;DHT22;5038;53.064;8.624;2022-10-31T15:29:53;15.20;99.90
9998;DHT22;5038;53.064;8.624;2022-10-31T15:32:22;15.20;99.90
9998;DHT22;5038;53.064;8.624;2022-10-31T15:34:52;15.20;99.90
9998;DHT22;5038;53.064;8.624;2022-10-31T15:37:23;15.20;99.90
9998;DHT22;5038;53.064;8.624;2022-10-31T15:39:52;15.20;99.90
9998;DHT22;5038;53.064;8.624;2022-10-31T15:42:22;15.10;99.90
9998;DHT22;5038;53.064;8.624;2022-10-31T15:44:55;15.20;99.90
9998;DHT22;5038;53.064;8.624;2022-10-31T15:47:24;15.10;99.90
9998;DHT22;5038;53.064;8.624;2022-10-31T15:49:54;15.10;99.90
9998;DHT22;5038;53.064;8.624;2022-10-31T15:52:29;15.10;99.90
9998;DHT22;5038;53.064;8.624;2022-10-31T15:55:02;15.10;99.90
9998;DHT22;5038;53.064;8.624;2022-10-31T15:57:32;15.00;99.90
9998;DHT22;5038;53.064;8.624;2022-10-31T16:00:01;15.00;99.90
9998;DHT22;5038;53.064;8.624;2022-10-31T16:02:31;15.00;99.90
9998;DHT22;5038;53.064;8.624;2022-10-31T16:05:00;15.00;99.90
9998;DHT22;5038;53.064;8.624;2022-10-31T16:07:30;15.00;99.90
9998;DHT22;5038;53.064;8.624;2022-10-31T16:09:59;15.00;99.90
9998;DHT22;5038;53.064;8.624;2022-10-31T16:12:34;15.00;99.90
9998;DHT22;5038;53.064;8.624;2022-10-31T16:15:04;14.90;99.90
9998;DHT22;5038;53.064;8.624;2022-10-31T16:17:33;15.00;99.90
9998;DHT22;5038;53.064;8.624;2022-10-31T16:20:02;14.90;99.90
9998;DHT22;5038;53.064;8.624;2022-10-31T16:22:35;14.90;99.90
9998;DHT22;5038;53.064;8.624;2022-10-31T16:25:08;14.90;99.90
9998;DHT22;5038;53.064;8.624;2022-10-31T16:27:38;14.90;99.90
9998;DHT22;5038;53.064;8.624;2022-10-31T16:30:32;14.90;99.90
9998;DHT22;5038;53.064;8.624;2022-10-31T16:33:04;14.80;99.90
9998;DHT22;5038;53.064;8.624;2022-10-31T16:35:34;14.80;99.90
9998;DHT22;5038;53.064;8.624;2022-10-31T16:38:04;14.80;99.90
9998;DHT22;5038;53.064;8.624;2022-10-31T16:40:32;14.80;99.90
9998;DHT22;5038;53.064;8.624;2022-10-31T16:43:02;14.80;99.90
9998;DHT22;5038;53.064;8.624;2022-10-31T16:45:32;14.80;99.90
9998;DHT22;5038;53.064;8.624;2022-10-31T16:48:03;14.80;99.90
9998;DHT22;5038;53.064;8.624;2022-10-31T16:50:32;14.80;99.90
9998;DHT22;5038;53.064;8.624;2022-10-31T16:53:00;14.80;99.90
9998;DHT22;5038;53.064;8.624;2022-10-31T16:55:48;14.80;99.90
9998;DHT22;5038;53.064;8.624;2022-10-31T16:58:20;14.70;99.90